createdAt,value
2024-05-09T00:01:32.579Z,1.60
2024-05-09T00:04:36.238Z,1.73
2024-05-09T00:07:39.750Z,1.92
2024-05-09T00:10:43.455Z,1.38
2024-05-09T00:13:47.498Z,1.47
2024-05-09T00:16:51.292Z,1.60
2024-05-09T00:19:54.999Z,1.60
2024-05-09T00:22:58.546Z,1.55
2024-05-09T00:26:02.187Z,1.25
2024-05-09T00:29:08.125Z,1.37
2024-05-09T00:32:12.333Z,1.30
2024-05-09T00:35:15.978Z,1.58
2024-05-09T00:38:19.758Z,1.50
2024-05-09T00:41:23.284Z,1.38
2024-05-09T00:44:26.877Z,1.40
2024-05-09T00:47:30.861Z,1.20
2024-05-09T00:50:37.148Z,1.50
2024-05-09T00:53:41.749Z,1.30
2024-05-09T00:56:46.091Z,1.10
2024-05-09T00:59:50.453Z,1.33
2024-05-09T01:02:54.114Z,1.10
2024-05-09T01:05:57.831Z,1.20
2024-05-09T01:09:01.448Z,1.45
2024-05-09T01:12:05.441Z,1.23
2024-05-09T01:15:09.123Z,1.17
2024-05-09T01:18:13.813Z,1.17
2024-05-09T01:21:17.814Z,1.23
2024-05-09T01:24:21.554Z,1.08
2024-05-09T01:27:25.195Z,1.40
2024-05-09T01:30:34.417Z,1.50
2024-05-09T01:33:40.487Z,1.23
2024-05-09T01:36:44.169Z,1.40
2024-05-09T01:39:47.683Z,1.60
2024-05-09T01:42:51.220Z,1.33
2024-05-09T01:45:54.754Z,1.30
2024-05-09T01:48:59.122Z,1.63
2024-05-09T01:52:02.848Z,1.30
2024-05-09T01:55:07.776Z,1.42
2024-05-09T01:58:11.460Z,1.40
2024-05-09T02:01:15.024Z,1.43
2024-05-09T02:04:18.765Z,1.30
2024-05-09T02:07:22.466Z,1.30
2024-05-09T02:10:32.136Z,1.40
2024-05-09T02:13:36.774Z,1.33
2024-05-09T02:16:40.319Z,1.60
2024-05-09T02:19:43.924Z,1.30
2024-05-09T02:22:47.560Z,1.50
2024-05-09T02:25:51.255Z,1.55
2024-05-09T02:28:54.838Z,1.58
2024-05-09T02:31:58.453Z,1.27
2024-05-09T02:35:02.213Z,1.70
2024-05-09T02:38:06.026Z,1.80
2024-05-09T02:41:10.090Z,1.90
2024-05-09T02:44:13.746Z,1.70
2024-05-09T02:47:17.403Z,1.73
2024-05-09T02:50:29.702Z,1.80
2024-05-09T02:53:40.361Z,1.25
2024-05-09T02:56:44.055Z,1.50
2024-05-09T02:59:47.730Z,1.70
2024-05-09T03:02:51.336Z,1.50
2024-05-09T03:05:54.974Z,1.60
2024-05-09T03:08:58.525Z,2.03
2024-05-09T03:12:02.458Z,2.15
2024-05-09T03:15:06.603Z,1.88
2024-05-09T03:18:10.874Z,1.87
2024-05-09T03:21:14.804Z,2.30
2024-05-09T03:24:18.339Z,1.80
2024-05-09T03:27:24.272Z,1.65
2024-05-09T03:30:38.946Z,1.70
2024-05-09T03:33:45.904Z,1.87
2024-05-09T03:36:49.604Z,1.60
2024-05-09T03:39:53.419Z,2.03
2024-05-09T03:42:56.968Z,1.73
2024-05-09T03:46:00.542Z,2.38
2024-05-09T03:49:04.210Z,1.90
2024-05-09T03:52:07.825Z,1.60
2024-05-09T03:55:11.344Z,1.90
2024-05-09T03:58:14.959Z,1.95
2024-05-09T04:01:18.491Z,1.75
2024-05-09T04:04:22.203Z,1.80
2024-05-09T04:07:25.738Z,1.90
2024-05-09T04:10:33.626Z,1.80
2024-05-09T04:13:38.492Z,1.85
2024-05-09T04:16:42.741Z,1.98
2024-05-09T04:19:46.322Z,2.00
2024-05-09T04:22:49.921Z,2.10
2024-05-09T04:25:53.496Z,1.50
2024-05-09T04:28:57.109Z,1.67
2024-05-09T04:32:00.770Z,2.20
2024-05-09T04:35:04.591Z,2.00
2024-05-09T04:38:09.246Z,1.80
2024-05-09T04:41:12.888Z,1.90
2024-05-09T04:44:16.472Z,1.92
2024-05-09T04:47:22.424Z,2.22
2024-05-09T04:50:35.371Z,1.80
2024-05-09T04:53:41.850Z,1.97
2024-05-09T04:56:45.472Z,2.10
2024-05-09T04:59:49.098Z,2.17
2024-05-09T05:02:52.924Z,2.42
2024-05-09T05:05:56.669Z,2.17
2024-05-09T05:09:00.319Z,2.10
2024-05-09T05:12:23.979Z,1.88
2024-05-09T05:15:27.569Z,2.10
2024-05-09T05:18:31.192Z,2.03
2024-05-09T05:21:34.839Z,1.90
2024-05-09T05:24:38.764Z,2.00
2024-05-09T05:27:42.783Z,2.00
2024-05-09T05:30:46.828Z,1.90
2024-05-09T05:33:50.598Z,1.77
2024-05-09T05:36:54.154Z,1.80
2024-05-09T05:39:58.359Z,2.03
2024-05-09T05:43:02.209Z,1.80
2024-05-09T05:46:06.010Z,1.65
2024-05-09T05:49:09.888Z,2.20
2024-05-09T05:52:13.619Z,1.93
2024-05-09T05:55:17.179Z,2.10
2024-05-09T05:58:21.905Z,1.95
2024-05-09T06:01:26.186Z,2.20
2024-05-09T06:04:30.018Z,2.13
2024-05-09T06:07:33.877Z,2.10
2024-05-09T06:10:40.067Z,2.00
2024-05-09T06:13:45.078Z,1.80
2024-05-09T06:16:48.762Z,1.70
2024-05-09T06:19:52.752Z,1.67
2024-05-09T06:22:57.059Z,1.90
2024-05-09T06:26:12.005Z,1.70
2024-05-09T06:29:16.229Z,2.00
2024-05-09T06:32:20.183Z,2.10
2024-05-09T06:35:24.122Z,1.80
2024-05-09T06:38:28.896Z,1.90
2024-05-09T06:41:35.673Z,1.67
2024-05-09T06:44:39.465Z,1.40
2024-05-09T06:47:44.192Z,1.30
2024-05-09T06:50:48.577Z,1.30
2024-05-09T06:53:52.346Z,1.20
2024-05-09T06:56:56.057Z,1.60
2024-05-09T07:00:00.996Z,1.30
2024-05-09T07:03:13.177Z,1.65
2024-05-09T07:06:19.026Z,1.60
2024-05-09T07:09:23.678Z,1.77
2024-05-09T07:12:27.469Z,1.50
2024-05-09T07:15:31.186Z,1.60
2024-05-09T07:18:35.088Z,1.35
2024-05-09T07:21:38.901Z,1.30
2024-05-09T07:24:42.592Z,1.47
2024-05-09T07:27:46.372Z,0.90
2024-05-09T07:30:50.300Z,1.50
2024-05-09T07:33:54.641Z,1.20
2024-05-09T07:36:58.996Z,1.75
2024-05-09T07:40:05.916Z,1.47
2024-05-09T07:43:12.018Z,1.40
2024-05-09T07:47:14.199Z,1.30
2024-05-09T07:53:34.630Z,1.50
2024-05-09T07:56:12.045Z,1.80
2024-05-09T07:59:16.866Z,1.40
2024-05-09T08:02:20.608Z,1.27
2024-05-09T08:05:24.509Z,1.50
2024-05-09T08:08:28.384Z,1.60
2024-05-09T08:11:33.161Z,1.60
2024-05-09T08:14:36.885Z,1.30
2024-05-09T08:17:40.690Z,1.58
2024-05-09T08:20:50.025Z,1.52
2024-05-09T08:23:53.678Z,1.20
2024-05-09T08:26:57.294Z,1.30
2024-05-09T08:30:01.042Z,1.67
2024-05-09T08:33:06.463Z,1.20
2024-05-09T08:36:11.012Z,1.42
2024-05-09T08:39:14.653Z,1.27
2024-05-09T08:42:18.887Z,1.40
2024-05-09T08:45:23.329Z,1.30
2024-05-09T08:48:29.687Z,1.60
2024-05-09T08:51:33.906Z,1.55
2024-05-09T08:54:37.655Z,1.40
2024-05-09T08:57:44.186Z,1.50
2024-05-09T09:00:48.679Z,1.30
2024-05-09T09:03:54.167Z,1.20
2024-05-09T09:07:00.301Z,1.40
2024-05-09T09:10:07.021Z,1.10
2024-05-09T09:13:12.132Z,1.30
2024-05-09T09:16:16.595Z,1.23
2024-05-09T09:19:22.842Z,1.00
2024-05-09T09:22:26.583Z,1.20
2024-05-09T09:25:32.660Z,1.10
2024-05-09T09:28:40.696Z,1.00
2024-05-09T09:31:44.301Z,0.90
2024-05-09T09:34:48.807Z,1.10
2024-05-09T09:37:53.365Z,1.60
2024-05-09T09:40:57.096Z,1.05
2024-05-09T09:44:02.426Z,1.13
2024-05-09T09:47:07.423Z,1.00
2024-05-09T09:50:17.083Z,1.05
2024-05-09T09:53:24.831Z,0.85
2024-05-09T09:56:30.542Z,1.15
2024-05-09T09:59:37.090Z,1.30
2024-05-09T10:02:43.775Z,0.90
2024-05-09T10:05:48.320Z,1.10
2024-05-09T10:08:52.548Z,1.13
2024-05-09T10:12:00.263Z,1.08
2024-05-09T10:15:11.882Z,1.20
2024-05-09T10:18:16.063Z,1.10
2024-05-09T10:21:21.546Z,1.23
2024-05-09T10:24:25.458Z,1.00
2024-05-09T10:27:30.389Z,1.35
2024-05-09T10:30:36.281Z,1.10
2024-05-09T10:33:51.770Z,0.93
2024-05-09T10:36:56.449Z,1.27
2024-05-09T10:40:01.409Z,1.00
2024-05-09T10:43:06.588Z,0.90
2024-05-09T10:46:12.679Z,1.10
2024-05-09T10:49:17.689Z,1.43
2024-05-09T10:52:25.652Z,1.17
2024-05-09T10:55:30.042Z,1.42
2024-05-09T10:58:33.789Z,1.10
2024-05-09T11:01:37.889Z,1.40
2024-05-09T11:04:47.016Z,1.23
2024-05-09T11:07:53.978Z,1.35
2024-05-09T11:10:59.991Z,1.05
2024-05-09T11:14:13.047Z,1.08
2024-05-09T11:17:16.844Z,1.00
2024-05-09T11:20:29.120Z,1.03
2024-05-09T11:23:33.742Z,1.15
2024-05-09T11:26:37.435Z,1.30
2024-05-09T11:29:45.763Z,1.40
2024-05-09T11:32:50.037Z,1.17
2024-05-09T11:35:53.732Z,1.30
2024-05-09T11:38:57.329Z,1.00
2024-05-09T11:42:01.009Z,1.50
2024-05-09T11:45:05.404Z,1.35
2024-05-09T11:48:09.634Z,1.53
2024-05-09T11:51:13.459Z,1.17
2024-05-09T11:54:17.436Z,1.30
2024-05-09T11:57:21.062Z,1.38
2024-05-09T12:00:32.970Z,0.93
2024-05-09T12:03:40.606Z,1.30
2024-05-09T12:06:46.380Z,1.10
2024-05-09T12:09:50.193Z,1.17
2024-05-09T12:12:54.687Z,1.38
2024-05-09T12:15:58.503Z,1.10
2024-05-09T12:19:02.462Z,1.30
2024-05-09T12:22:06.301Z,1.20
2024-05-09T12:25:10.125Z,1.23
2024-05-09T12:28:14.784Z,1.60
2024-05-09T12:31:18.478Z,1.20
2024-05-09T12:34:22.267Z,1.13
2024-05-09T12:37:26.333Z,1.10
2024-05-09T12:40:36.133Z,1.27
2024-05-09T12:43:41.886Z,1.40
2024-05-09T12:46:46.111Z,1.23
2024-05-09T12:49:52.482Z,1.30
2024-05-09T12:52:56.298Z,1.43
2024-05-09T12:56:02.425Z,1.20
2024-05-09T12:59:07.562Z,1.23
2024-05-09T13:02:11.897Z,1.17
2024-05-09T13:05:16.015Z,1.33
2024-05-09T13:08:20.986Z,1.50
2024-05-09T13:11:24.650Z,1.63
2024-05-09T13:14:28.331Z,1.40
2024-05-09T13:17:33.031Z,1.10
2024-05-09T13:20:37.754Z,1.30
2024-05-09T13:23:41.423Z,1.37
2024-05-09T13:26:45.268Z,1.30
2024-05-09T13:29:53.135Z,1.30
2024-05-09T13:32:57.464Z,1.27
2024-05-09T13:36:02.107Z,1.37
2024-05-09T13:39:05.938Z,1.30
2024-05-09T13:42:10.163Z,1.20
2024-05-09T13:45:14.049Z,1.50
2024-05-09T13:48:18.238Z,1.40
2024-05-09T13:51:22.239Z,1.50
2024-05-09T13:54:26.378Z,1.33
2024-05-09T13:57:31.037Z,1.45
2024-05-09T14:00:44.314Z,1.70
2024-05-09T14:03:51.972Z,1.40
2024-05-09T14:06:56.429Z,1.77
2024-05-09T14:10:00.365Z,1.40
2024-05-09T14:13:04.334Z,1.50
2024-05-09T14:16:08.286Z,1.30
2024-05-09T14:19:12.663Z,1.60
2024-05-09T14:22:17.001Z,1.50
2024-05-09T14:25:20.706Z,1.20
2024-05-09T14:28:26.431Z,1.38
2024-05-09T14:31:30.221Z,1.55
2024-05-09T14:34:34.073Z,1.45
2024-05-09T14:37:39.823Z,1.30
2024-05-09T14:40:44.302Z,1.37
2024-05-09T14:43:48.506Z,1.55
2024-05-09T14:46:52.843Z,1.67
2024-05-09T14:49:56.508Z,1.30
2024-05-09T14:53:00.091Z,1.40
2024-05-09T14:56:04.352Z,1.50
2024-05-09T14:59:09.320Z,1.50
2024-05-09T15:02:13.252Z,1.20
2024-05-09T15:05:17.174Z,1.20
2024-05-09T15:08:21.212Z,1.30
2024-05-09T15:11:25.484Z,1.20
2024-05-09T15:14:29.234Z,1.50
2024-05-09T15:17:33.143Z,1.35
2024-05-09T15:20:37.864Z,1.20
2024-05-09T15:23:41.808Z,1.30
2024-05-09T15:26:45.500Z,1.30
2024-05-09T15:29:49.122Z,1.30
2024-05-09T15:32:52.897Z,1.30
2024-05-09T15:35:56.616Z,1.38
2024-05-09T15:39:00.253Z,1.40
2024-05-09T15:42:04.139Z,1.30
2024-05-09T15:45:07.926Z,1.25
2024-05-09T15:48:12.293Z,1.42
2024-05-09T15:51:15.973Z,1.42
2024-05-09T15:54:21.563Z,1.47
2024-05-09T15:57:26.364Z,1.47
2024-05-09T16:00:37.447Z,1.95
2024-05-09T16:03:45.482Z,1.60
2024-05-09T16:06:49.678Z,1.58
2024-05-09T16:09:53.343Z,1.33
2024-05-09T16:12:57.195Z,1.40
2024-05-09T16:16:01.465Z,1.13
2024-05-09T16:19:05.435Z,1.58
2024-05-09T16:22:09.178Z,1.25
2024-05-09T16:25:13.029Z,1.20
2024-05-09T16:28:18.264Z,1.20
2024-05-09T16:31:21.988Z,1.50
2024-05-09T16:34:25.867Z,1.60
2024-05-09T16:37:29.845Z,1.30
2024-05-09T16:40:38.758Z,2.20
2024-05-09T16:43:44.486Z,2.50
2024-05-09T16:46:48.165Z,2.05
2024-05-09T16:49:51.918Z,1.70
2024-05-09T16:52:55.541Z,1.33
2024-05-09T16:55:59.198Z,2.20
2024-05-09T16:59:03.145Z,2.17
2024-05-09T17:02:07.051Z,2.40
2024-05-09T17:05:11.255Z,2.10
2024-05-09T17:08:18.196Z,1.80
2024-05-09T17:11:22.028Z,1.60
2024-05-09T17:14:25.681Z,2.00
2024-05-09T17:17:29.478Z,2.60
2024-05-09T17:20:36.231Z,2.65
2024-05-09T17:23:41.693Z,2.53
2024-05-09T17:26:45.952Z,2.03
2024-05-09T17:29:49.547Z,1.60
2024-05-09T17:32:53.185Z,1.20
2024-05-09T17:35:56.880Z,1.58
2024-05-09T17:39:00.458Z,1.70
2024-05-09T17:42:04.216Z,1.70
2024-05-09T17:45:07.854Z,1.80
2024-05-09T17:48:12.581Z,2.17
2024-05-09T17:51:16.479Z,1.83
2024-05-09T17:54:20.335Z,1.70
2024-05-09T17:57:25.712Z,1.83
2024-05-09T18:00:37.294Z,1.23
2024-05-09T18:03:44.300Z,1.38
2024-05-09T18:06:48.822Z,1.50
2024-05-09T18:09:53.024Z,1.40
2024-05-09T18:12:57.271Z,1.40
2024-05-09T18:16:01.085Z,1.40
2024-05-09T18:19:05.489Z,1.67
2024-05-09T18:22:09.285Z,1.38
2024-05-09T18:25:17.039Z,1.70
2024-05-09T18:28:21.126Z,1.80
2024-05-09T18:31:25.400Z,1.77
2024-05-09T18:34:29.788Z,1.40
2024-05-09T18:37:34.521Z,1.35
2024-05-09T18:40:39.456Z,1.52
2024-05-09T18:43:45.564Z,1.53
2024-05-09T18:46:52.259Z,1.37
2024-05-09T18:49:55.976Z,1.40
2024-05-09T18:52:59.626Z,2.15
2024-05-09T18:56:04.356Z,1.80
2024-05-09T18:59:08.567Z,1.77
2024-05-09T19:02:12.480Z,1.60
2024-05-09T19:05:16.537Z,1.70
2024-05-09T19:08:21.240Z,1.58
2024-05-09T19:11:26.299Z,1.77
2024-05-09T19:14:29.995Z,1.93
2024-05-09T19:17:34.357Z,1.40
2024-05-09T19:20:39.216Z,1.60
2024-05-09T19:23:50.550Z,1.52
2024-05-09T19:26:57.134Z,1.95
2024-05-09T19:30:00.877Z,1.60
2024-05-09T19:33:05.439Z,1.80
2024-05-09T19:36:09.634Z,1.70
2024-05-09T19:39:13.370Z,1.90
2024-05-09T19:42:17.834Z,1.88
2024-05-09T19:45:22.279Z,3.80
2024-05-09T19:48:26.305Z,2.90
2024-05-09T19:51:30.104Z,2.85
2024-05-09T19:54:33.740Z,2.72
2024-05-09T19:57:37.445Z,2.30
2024-05-09T20:00:43.511Z,2.07
2024-05-09T20:03:49.442Z,2.10
2024-05-09T20:06:54.258Z,1.92
2024-05-09T20:09:58.216Z,1.88
2024-05-09T20:13:02.638Z,1.88
2024-05-09T20:16:08.274Z,2.00
2024-05-09T20:19:12.986Z,2.17
2024-05-09T20:22:17.421Z,1.80
2024-05-09T20:25:22.125Z,1.70
2024-05-09T20:28:26.912Z,1.83
2024-05-09T20:31:30.948Z,3.30
2024-05-09T20:34:34.952Z,4.87
2024-05-09T20:37:38.959Z,2.85
2024-05-09T20:40:43.924Z,1.40
2024-05-09T20:43:47.927Z,1.75
2024-05-09T20:46:51.690Z,1.63
2024-05-09T20:49:55.656Z,1.40
2024-05-09T20:52:59.327Z,1.40
2024-05-09T20:56:02.891Z,1.42
2024-05-09T20:59:06.452Z,1.40
2024-05-09T21:02:10.201Z,1.57
2024-05-09T21:05:14.332Z,1.30
2024-05-09T21:08:17.979Z,1.50
2024-05-09T21:11:23.054Z,1.60
2024-05-09T21:14:26.638Z,1.75
2024-05-09T21:17:30.304Z,1.70
2024-05-09T21:20:35.025Z,2.00
2024-05-09T21:23:38.983Z,1.67
2024-05-09T21:26:42.510Z,1.52
2024-05-09T21:29:46.044Z,1.58
2024-05-09T21:32:49.701Z,1.57
2024-05-09T21:35:54.732Z,1.60
2024-05-09T21:38:58.285Z,1.25
2024-05-09T21:42:02.793Z,1.50
2024-05-09T21:45:06.767Z,1.25
2024-05-09T21:48:12.805Z,1.47
2024-05-09T21:51:16.737Z,1.50
2024-05-09T21:54:20.263Z,1.10
2024-05-09T21:57:23.797Z,1.58
2024-05-09T22:00:34.757Z,1.40
2024-05-09T22:03:41.351Z,1.40
2024-05-09T22:06:45.068Z,1.23
2024-05-09T22:09:48.650Z,1.20
2024-05-09T22:12:52.206Z,1.30
2024-05-09T22:15:55.851Z,1.25
2024-05-09T22:18:59.645Z,1.30
2024-05-09T22:22:03.314Z,1.30
2024-05-09T22:25:07.979Z,1.40
2024-05-09T22:28:13.341Z,1.50
2024-05-09T22:31:17.044Z,1.40
2024-05-09T22:34:20.813Z,1.53
2024-05-09T22:37:24.521Z,1.50
2024-05-09T22:40:38.593Z,1.73
2024-05-09T22:43:50.113Z,1.70
2024-05-09T22:46:53.664Z,1.85
2024-05-09T22:49:57.230Z,1.70
2024-05-09T22:53:01.116Z,1.70
2024-05-09T22:56:05.150Z,1.80
2024-05-09T22:59:08.665Z,1.55
2024-05-09T23:02:12.303Z,1.85
2024-05-09T23:05:15.998Z,2.10
2024-05-09T23:08:19.625Z,1.80
2024-05-09T23:11:23.182Z,1.95
2024-05-09T23:14:27.310Z,1.83
2024-05-09T23:17:30.948Z,2.05
2024-05-09T23:20:38.496Z,2.13
2024-05-09T23:23:43.478Z,2.07
2024-05-09T23:26:47.111Z,2.25
2024-05-09T23:29:50.745Z,2.10
2024-05-09T23:32:54.456Z,2.40
2024-05-09T23:35:57.997Z,2.60
2024-05-09T23:39:01.500Z,2.30
2024-05-09T23:42:05.600Z,2.60
2024-05-09T23:45:09.342Z,2.33
2024-05-09T23:48:13.120Z,2.50
2024-05-09T23:51:16.966Z,2.33
2024-05-09T23:54:20.467Z,2.43
2024-05-09T23:57:23.986Z,2.67
